sensor_id;sensor_type;location;lat;lon;timestamp;P1;durP1;ratioP1;P2;durP2;ratioP2
77736;SDS011;66903;59.926;30.404;2023-04-03T00:00:27;0.95;;;0.25;;
77736;SDS011;66903;59.926;30.404;2023-04-03T00:16:47;1.42;;;0.20;;
77736;SDS011;66903;59.926;30.404;2023-04-03T00:21:47;0.93;;;0.20;;
77736;SDS011;66903;59.926;30.404;2023-04-03T00:26:48;1.00;;;0.32;;
77736;SDS011;66903;59.926;30.404;2023-04-03T00:31:48;0.28;;;0.10;;
77736;SDS011;66903;59.926;30.404;2023-04-03T00:36:49;0.52;;;0.10;;
77736;SDS011;66903;59.926;30.404;2023-04-03T00:41:51;0.70;;;0.20;;
77736;SDS011;66903;59.926;30.404;2023-04-03T00:46:51;0.35;;;0.10;;
77736;SDS011;66903;59.926;30.404;2023-04-03T00:51:52;1.00;;;0.38;;
77736;SDS011;66903;59.926;30.404;2023-04-03T00:56:54;0.38;;;0.13;;
77736;SDS011;66903;59.926;30.404;2023-04-03T01:01:57;0.22;;;0.15;;
77736;SDS011;66903;59.926;30.404;2023-04-03T01:07:42;0.38;;;0.13;;
77736;SDS011;66903;59.926;30.404;2023-04-03T01:18:04;1.08;;;0.30;;
77736;SDS011;66903;59.926;30.404;2023-04-03T01:33:37;0.10;;;0.10;;
77736;SDS011;66903;59.926;30.404;2023-04-03T01:38:38;1.40;;;0.25;;
77736;SDS011;66903;59.926;30.404;2023-04-03T01:43:39;0.43;;;0.15;;
77736;SDS011;66903;59.926;30.404;2023-04-03T01:48:39;0.55;;;0.20;;
77736;SDS011;66903;59.926;30.404;2023-04-03T01:53:40;0.70;;;0.20;;
77736;SDS011;66903;59.926;30.404;2023-04-03T01:58:41;0.57;;;0.22;;
77736;SDS011;66903;59.926;30.404;2023-04-03T02:03:41;0.57;;;0.22;;
77736;SDS011;66903;59.926;30.404;2023-04-03T02:08:41;0.03;;;0.03;;
77736;SDS011;66903;59.926;30.404;2023-04-03T02:13:42;0.17;;;0.10;;
77736;SDS011;66903;59.926;30.404;2023-04-03T02:18:43;1.65;;;0.30;;
77736;SDS011;66903;59.926;30.404;2023-04-03T02:29:43;0.38;;;0.20;;
77736;SDS011;66903;59.926;30.404;2023-04-03T02:35:05;0.17;;;0.17;;
77736;SDS011;66903;59.926;30.404;2023-04-03T02:40:09;0.32;;;0.30;;
77736;SDS011;66903;59.926;30.404;2023-04-03T02:45:55;0.95;;;0.30;;
77736;SDS011;66903;59.926;30.404;2023-04-03T02:51:15;0.95;;;0.30;;
77736;SDS011;66903;59.926;30.404;2023-04-03T02:56:16;0.88;;;0.22;;
77736;SDS011;66903;59.926;30.404;2023-04-03T03:01:18;0.57;;;0.20;;
77736;SDS011;66903;59.926;30.404;2023-04-03T03:06:18;0.60;;;0.20;;
77736;SDS011;66903;59.926;30.404;2023-04-03T03:22:34;0.57;;;0.20;;
77736;SDS011;66903;59.926;30.404;2023-04-03T03:27:35;0.75;;;0.20;;
77736;SDS011;66903;59.926;30.404;2023-04-03T03:32:36;0.47;;;0.25;;
77736;SDS011;66903;59.926;30.404;2023-04-03T03:37:36;1.67;;;0.50;;
77736;SDS011;66903;59.926;30.404;2023-04-03T03:42:37;0.73;;;0.20;;
77736;SDS011;66903;59.926;30.404;2023-04-03T03:47:37;0.57;;;0.17;;
77736;SDS011;66903;59.926;30.404;2023-04-03T03:52:38;0.40;;;0.20;;
77736;SDS011;66903;59.926;30.404;2023-04-03T03:57:38;0.90;;;0.20;;
77736;SDS011;66903;59.926;30.404;2023-04-03T04:02:39;0.45;;;0.22;;
77736;SDS011;66903;59.926;30.404;2023-04-03T04:07:40;3.92;;;0.50;;
77736;SDS011;66903;59.926;30.404;2023-04-03T04:12:40;2.65;;;0.17;;
77736;SDS011;66903;59.926;30.404;2023-04-03T04:17:41;0.10;;;0.10;;
77736;SDS011;66903;59.926;30.404;2023-04-03T04:22:41;0.35;;;0.28;;
77736;SDS011;66903;59.926;30.404;2023-04-03T04:27:41;2.00;;;0.50;;
77736;SDS011;66903;59.926;30.404;2023-04-03T04:32:42;2.13;;;0.38;;
77736;SDS011;66903;59.926;30.404;2023-04-03T04:37:43;1.10;;;0.30;;
77736;SDS011;66903;59.926;30.404;2023-04-03T04:42:43;7.57;;;1.02;;
77736;SDS011;66903;59.926;30.404;2023-04-03T04:47:44;7.03;;;1.00;;
77736;SDS011;66903;59.926;30.404;2023-04-03T04:52:44;5.07;;;1.23;;
77736;SDS011;66903;59.926;30.404;2023-04-03T04:57:45;4.57;;;0.98;;
77736;SDS011;66903;59.926;30.404;2023-04-03T05:02:45;4.63;;;0.85;;
77736;SDS011;66903;59.926;30.404;2023-04-03T05:07:46;1.58;;;0.43;;
77736;SDS011;66903;59.926;30.404;2023-04-03T05:12:46;5.80;;;0.70;;
77736;SDS011;66903;59.926;30.404;2023-04-03T05:17:47;3.97;;;0.60;;
77736;SDS011;66903;59.926;30.404;2023-04-03T05:22:47;4.28;;;0.90;;
77736;SDS011;66903;59.926;30.404;2023-04-03T05:27:48;3.65;;;0.65;;
77736;SDS011;66903;59.926;30.404;2023-04-03T05:32:49;0.77;;;0.40;;
77736;SDS011;66903;59.926;30.404;2023-04-03T05:37:49;1.30;;;0.32;;
77736;SDS011;66903;59.926;30.404;2023-04-03T05:42:50;2.95;;;0.63;;
77736;SDS011;66903;59.926;30.404;2023-04-03T05:47:50;0.98;;;0.30;;
77736;SDS011;66903;59.926;30.404;2023-04-03T05:52:51;1.65;;;0.52;;
77736;SDS011;66903;59.926;30.404;2023-04-03T05:57:54;1.63;;;0.57;;
77736;SDS011;66903;59.926;30.404;2023-04-03T06:02:55;3.17;;;0.73;;
77736;SDS011;66903;59.926;30.404;2023-04-03T06:07:55;1.48;;;0.70;;
77736;SDS011;66903;59.926;30.404;2023-04-03T06:12:57;1.83;;;0.60;;
77736;SDS011;66903;59.926;30.404;2023-04-03T06:17:57;4.97;;;0.70;;
77736;SDS011;66903;59.926;30.404;2023-04-03T06:22:58;2.97;;;0.80;;
77736;SDS011;66903;59.926;30.404;2023-04-03T06:27:58;2.13;;;0.52;;
77736;SDS011;66903;59.926;30.404;2023-04-03T06:32:59;1.15;;;0.38;;
77736;SDS011;66903;59.926;30.404;2023-04-03T06:37:59;1.65;;;0.50;;
77736;SDS011;66903;59.926;30.404;2023-04-03T06:43:01;1.63;;;0.50;;
77736;SDS011;66903;59.926;30.404;2023-04-03T06:48:02;1.77;;;0.60;;
77736;SDS011;66903;59.926;30.404;2023-04-03T06:53:02;1.55;;;0.38;;
77736;SDS011;66903;59.926;30.404;2023-04-03T06:58:03;0.95;;;0.35;;
77736;SDS011;66903;59.926;30.404;2023-04-03T07:03:04;1.08;;;0.40;;
77736;SDS011;66903;59.926;30.404;2023-04-03T07:08:05;0.95;;;0.40;;
77736;SDS011;66903;59.926;30.404;2023-04-03T07:13:06;1.48;;;0.52;;
77736;SDS011;66903;59.926;30.404;2023-04-03T07:18:06;0.90;;;0.40;;
77736;SDS011;66903;59.926;30.404;2023-04-03T07:23:07;1.30;;;0.43;;
77736;SDS011;66903;59.926;30.404;2023-04-03T07:28:07;1.85;;;0.60;;
77736;SDS011;66903;59.926;30.404;2023-04-03T07:33:09;0.73;;;0.30;;
77736;SDS011;66903;59.926;30.404;2023-04-03T07:38:09;1.73;;;0.50;;
77736;SDS011;66903;59.926;30.404;2023-04-03T07:43:10;2.05;;;0.63;;
77736;SDS011;66903;59.926;30.404;2023-04-03T07:48:11;1.45;;;0.40;;
77736;SDS011;66903;59.926;30.404;2023-04-03T07:53:12;1.67;;;0.47;;
77736;SDS011;66903;59.926;30.404;2023-04-03T07:58:16;1.88;;;0.60;;
77736;SDS011;66903;59.926;30.404;2023-04-03T08:03:17;1.02;;;0.50;;
77736;SDS011;66903;59.926;30.404;2023-04-03T08:08:19;1.42;;;0.47;;
77736;SDS011;66903;59.926;30.404;2023-04-03T08:13:21;3.35;;;0.52;;
77736;SDS011;66903;59.926;30.404;2023-04-03T08:18:23;1.08;;;0.40;;
77736;SDS011;66903;59.926;30.404;2023-04-03T08:23:24;1.67;;;0.50;;
77736;SDS011;66903;59.926;30.404;2023-04-03T08:28:25;1.67;;;0.40;;
77736;SDS011;66903;59.926;30.404;2023-04-03T08:33:25;1.65;;;0.60;;
77736;SDS011;66903;59.926;30.404;2023-04-03T08:38:26;1.08;;;0.38;;
77736;SDS011;66903;59.926;30.404;2023-04-03T08:48:34;1.85;;;0.50;;
77736;SDS011;66903;59.926;30.404;2023-04-03T08:53:39;1.23;;;0.40;;
77736;SDS011;66903;59.926;30.404;2023-04-03T08:58:52;1.58;;;0.50;;
77736;SDS011;66903;59.926;30.404;2023-04-03T09:03:57;0.65;;;0.30;;
77736;SDS011;66903;59.926;30.404;2023-04-03T09:09:12;2.70;;;0.52;;
77736;SDS011;66903;59.926;30.404;2023-04-03T09:24:35;0.95;;;0.30;;
77736;SDS011;66903;59.926;30.404;2023-04-03T09:29:38;0.98;;;0.40;;
77736;SDS011;66903;59.926;30.404;2023-04-03T09:34:45;1.50;;;0.35;;
77736;SDS011;66903;59.926;30.404;2023-04-03T09:39:55;2.38;;;0.60;;
77736;SDS011;66903;59.926;30.404;2023-04-03T09:45:00;1.95;;;0.40;;
77736;SDS011;66903;59.926;30.404;2023-04-03T10:00:25;1.33;;;0.47;;
77736;SDS011;66903;59.926;30.404;2023-04-03T10:05:46;0.82;;;0.30;;
77736;SDS011;66903;59.926;30.404;2023-04-03T10:10:47;1.75;;;0.45;;
77736;SDS011;66903;59.926;30.404;2023-04-03T10:16:06;1.77;;;0.40;;
77736;SDS011;66903;59.926;30.404;2023-04-03T10:21:16;1.80;;;0.40;;
77736;SDS011;66903;59.926;30.404;2023-04-03T10:26:34;0.88;;;0.40;;
77736;SDS011;66903;59.926;30.404;2023-04-03T10:48:04;0.98;;;0.30;;
77736;SDS011;66903;59.926;30.404;2023-04-03T10:53:31;0.70;;;0.30;;
77736;SDS011;66903;59.926;30.404;2023-04-03T10:58:40;1.30;;;0.50;;
77736;SDS011;66903;59.926;30.404;2023-04-03T11:03:49;0.57;;;0.28;;
77736;SDS011;66903;59.926;30.404;2023-04-03T11:14:32;1.85;;;0.50;;
77736;SDS011;66903;59.926;30.404;2023-04-03T11:19:38;0.70;;;0.30;;
77736;SDS011;66903;59.926;30.404;2023-04-03T11:24:45;0.35;;;0.20;;
77736;SDS011;66903;59.926;30.404;2023-04-03T11:29:52;2.65;;;0.68;;
77736;SDS011;66903;59.926;30.404;2023-04-03T11:34:55;1.90;;;0.60;;
77736;SDS011;66903;59.926;30.404;2023-04-03T11:40:41;2.10;;;0.52;;
77736;SDS011;66903;59.926;30.404;2023-04-03T11:45:29;1.33;;;0.60;;
77736;SDS011;66903;59.926;30.404;2023-04-03T12:00:50;1.77;;;0.60;;
77736;SDS011;66903;59.926;30.404;2023-04-03T12:16:19;0.85;;;0.32;;
77736;SDS011;66903;59.926;30.404;2023-04-03T12:42:55;0.75;;;0.20;;
77736;SDS011;66903;59.926;30.404;2023-04-03T12:48:08;1.10;;;0.32;;
77736;SDS011;66903;59.926;30.404;2023-04-03T12:53:23;1.00;;;0.30;;
77736;SDS011;66903;59.926;30.404;2023-04-03T12:58:27;1.75;;;0.50;;
77736;SDS011;66903;59.926;30.404;2023-04-03T13:03:31;1.00;;;0.30;;
77736;SDS011;66903;59.926;30.404;2023-04-03T13:08:37;0.88;;;0.40;;
77736;SDS011;66903;59.926;30.404;2023-04-03T13:13:56;0.57;;;0.30;;
77736;SDS011;66903;59.926;30.404;2023-04-03T13:18:58;1.25;;;0.38;;
77736;SDS011;66903;59.926;30.404;2023-04-03T13:24:01;1.15;;;0.40;;
77736;SDS011;66903;59.926;30.404;2023-04-03T13:29:19;1.08;;;0.32;;
77736;SDS011;66903;59.926;30.404;2023-04-03T13:34:28;1.35;;;0.35;;
77736;SDS011;66903;59.926;30.404;2023-04-03T13:39:36;1.38;;;0.40;;
77736;SDS011;66903;59.926;30.404;2023-04-03T13:44:38;0.90;;;0.35;;
77736;SDS011;66903;59.926;30.404;2023-04-03T13:49:43;0.82;;;0.28;;
77736;SDS011;66903;59.926;30.404;2023-04-03T13:54:46;0.82;;;0.32;;
77736;SDS011;66903;59.926;30.404;2023-04-03T13:59:51;1.17;;;0.40;;
77736;SDS011;66903;59.926;30.404;2023-04-03T14:04:54;2.53;;;0.77;;
77736;SDS011;66903;59.926;30.404;2023-04-03T14:09:59;0.90;;;0.30;;
77736;SDS011;66903;59.926;30.404;2023-04-03T14:15:01;2.72;;;0.57;;
77736;SDS011;66903;59.926;30.404;2023-04-03T14:20:03;0.57;;;0.20;;
77736;SDS011;66903;59.926;30.404;2023-04-03T14:25:04;2.65;;;0.45;;
77736;SDS011;66903;59.926;30.404;2023-04-03T14:30:06;1.08;;;0.40;;
77736;SDS011;66903;59.926;30.404;2023-04-03T14:35:09;2.03;;;0.65;;
77736;SDS011;66903;59.926;30.404;2023-04-03T14:40:18;2.75;;;0.68;;
77736;SDS011;66903;59.926;30.404;2023-04-03T14:45:23;1.88;;;0.82;;
77736;SDS011;66903;59.926;30.404;2023-04-03T14:50:25;3.83;;;0.65;;
77736;SDS011;66903;59.926;30.404;2023-04-03T14:55:27;1.45;;;0.40;;
77736;SDS011;66903;59.926;30.404;2023-04-03T15:00:27;1.65;;;0.50;;
77736;SDS011;66903;59.926;30.404;2023-04-03T15:05:28;4.43;;;0.70;;
77736;SDS011;66903;59.926;30.404;2023-04-03T15:10:29;1.15;;;0.30;;
77736;SDS011;66903;59.926;30.404;2023-04-03T15:15:31;0.60;;;0.20;;
77736;SDS011;66903;59.926;30.404;2023-04-03T15:20:34;1.38;;;0.50;;
77736;SDS011;66903;59.926;30.404;2023-04-03T15:25:35;2.72;;;0.50;;
77736;SDS011;66903;59.926;30.404;2023-04-03T15:30:36;0.75;;;0.38;;
77736;SDS011;66903;59.926;30.404;2023-04-03T15:35:38;0.38;;;0.25;;
77736;SDS011;66903;59.926;30.404;2023-04-03T15:40:39;1.02;;;0.38;;
77736;SDS011;66903;59.926;30.404;2023-04-03T15:45:40;0.85;;;0.22;;
77736;SDS011;66903;59.926;30.404;2023-04-03T15:50:42;2.05;;;0.30;;
77736;SDS011;66903;59.926;30.404;2023-04-03T15:55:43;1.45;;;0.40;;
77736;SDS011;66903;59.926;30.404;2023-04-03T16:00:43;1.10;;;0.35;;
77736;SDS011;66903;59.926;30.404;2023-04-03T16:05:44;7.07;;;1.60;;
77736;SDS011;66903;59.926;30.404;2023-04-03T16:10:45;6.43;;;1.42;;
77736;SDS011;66903;59.926;30.404;2023-04-03T16:15:46;4.35;;;1.20;;
77736;SDS011;66903;59.926;30.404;2023-04-03T16:20:48;5.55;;;1.38;;
77736;SDS011;66903;59.926;30.404;2023-04-03T16:25:49;8.25;;;1.10;;
77736;SDS011;66903;59.926;30.404;2023-04-03T16:30:50;6.43;;;1.00;;
77736;SDS011;66903;59.926;30.404;2023-04-03T16:35:51;2.63;;;0.80;;
77736;SDS011;66903;59.926;30.404;2023-04-03T16:40:52;3.00;;;0.65;;
77736;SDS011;66903;59.926;30.404;2023-04-03T16:45:56;2.05;;;0.70;;
77736;SDS011;66903;59.926;30.404;2023-04-03T16:50:57;1.90;;;0.60;;
77736;SDS011;66903;59.926;30.404;2023-04-03T16:55:58;2.03;;;0.73;;
77736;SDS011;66903;59.926;30.404;2023-04-03T17:01:07;1.70;;;0.40;;
77736;SDS011;66903;59.926;30.404;2023-04-03T17:06:19;1.98;;;0.50;;
77736;SDS011;66903;59.926;30.404;2023-04-03T17:11:21;2.60;;;0.70;;
77736;SDS011;66903;59.926;30.404;2023-04-03T17:16:22;1.45;;;0.50;;
77736;SDS011;66903;59.926;30.404;2023-04-03T17:21:23;2.95;;;0.57;;
77736;SDS011;66903;59.926;30.404;2023-04-03T17:26:24;1.67;;;0.40;;
77736;SDS011;66903;59.926;30.404;2023-04-03T17:31:26;2.58;;;0.45;;
77736;SDS011;66903;59.926;30.404;2023-04-03T17:36:27;1.33;;;0.30;;
77736;SDS011;66903;59.926;30.404;2023-04-03T17:41:29;0.80;;;0.30;;
77736;SDS011;66903;59.926;30.404;2023-04-03T17:46:29;1.38;;;0.47;;
77736;SDS011;66903;59.926;30.404;2023-04-03T17:51:31;1.15;;;0.38;;
77736;SDS011;66903;59.926;30.404;2023-04-03T17:56:35;0.57;;;0.30;;
77736;SDS011;66903;59.926;30.404;2023-04-03T18:01:35;2.17;;;0.57;;
77736;SDS011;66903;59.926;30.404;2023-04-03T18:06:40;1.35;;;0.30;;
77736;SDS011;66903;59.926;30.404;2023-04-03T18:11:44;2.40;;;0.50;;
77736;SDS011;66903;59.926;30.404;2023-04-03T18:16:46;0.55;;;0.20;;
77736;SDS011;66903;59.926;30.404;2023-04-03T18:21:46;1.25;;;0.38;;
77736;SDS011;66903;59.926;30.404;2023-04-03T18:26:49;0.57;;;0.30;;
77736;SDS011;66903;59.926;30.404;2023-04-03T18:31:54;1.25;;;0.43;;
77736;SDS011;66903;59.926;30.404;2023-04-03T18:36:56;1.40;;;0.45;;
77736;SDS011;66903;59.926;30.404;2023-04-03T18:41:57;0.95;;;0.40;;
77736;SDS011;66903;59.926;30.404;2023-04-03T18:47:02;2.67;;;0.60;;
77736;SDS011;66903;59.926;30.404;2023-04-03T18:52:03;3.22;;;0.25;;
77736;SDS011;66903;59.926;30.404;2023-04-03T18:57:04;1.00;;;0.32;;
77736;SDS011;66903;59.926;30.404;2023-04-03T19:02:05;1.10;;;0.35;;
77736;SDS011;66903;59.926;30.404;2023-04-03T19:07:07;1.33;;;0.22;;
77736;SDS011;66903;59.926;30.404;2023-04-03T19:12:09;0.80;;;0.40;;
77736;SDS011;66903;59.926;30.404;2023-04-03T19:17:09;0.50;;;0.20;;
77736;SDS011;66903;59.926;30.404;2023-04-03T19:22:10;1.75;;;0.50;;
77736;SDS011;66903;59.926;30.404;2023-04-03T19:27:11;2.08;;;0.50;;
77736;SDS011;66903;59.926;30.404;2023-04-03T19:32:11;1.38;;;0.50;;
77736;SDS011;66903;59.926;30.404;2023-04-03T19:37:12;2.03;;;0.75;;
77736;SDS011;66903;59.926;30.404;2023-04-03T19:42:13;1.40;;;0.50;;
77736;SDS011;66903;59.926;30.404;2023-04-03T19:47:14;3.72;;;1.60;;
77736;SDS011;66903;59.926;30.404;2023-04-03T19:52:16;1.38;;;0.65;;
77736;SDS011;66903;59.926;30.404;2023-04-03T19:57:17;2.17;;;0.63;;
77736;SDS011;66903;59.926;30.404;2023-04-03T20:02:17;2.95;;;0.75;;
77736;SDS011;66903;59.926;30.404;2023-04-03T20:07:20;2.33;;;0.50;;
77736;SDS011;66903;59.926;30.404;2023-04-03T20:12:20;1.42;;;0.43;;
77736;SDS011;66903;59.926;30.404;2023-04-03T20:17:21;0.85;;;0.30;;
77736;SDS011;66903;59.926;30.404;2023-04-03T20:22:21;1.27;;;0.35;;
77736;SDS011;66903;59.926;30.404;2023-04-03T20:27:22;1.10;;;0.43;;
77736;SDS011;66903;59.926;30.404;2023-04-03T20:32:23;2.38;;;0.55;;
77736;SDS011;66903;59.926;30.404;2023-04-03T20:37:24;1.08;;;0.30;;
77736;SDS011;66903;59.926;30.404;2023-04-03T20:42:25;0.55;;;0.25;;
77736;SDS011;66903;59.926;30.404;2023-04-03T20:47:26;3.45;;;0.40;;
77736;SDS011;66903;59.926;30.404;2023-04-03T20:52:26;2.50;;;0.45;;
77736;SDS011;66903;59.926;30.404;2023-04-03T20:57:27;0.50;;;0.20;;
77736;SDS011;66903;59.926;30.404;2023-04-03T21:02:28;0.55;;;0.17;;
77736;SDS011;66903;59.926;30.404;2023-04-03T21:24:19;1.75;;;0.30;;
77736;SDS011;66903;59.926;30.404;2023-04-03T21:29:20;0.63;;;0.20;;
77736;SDS011;66903;59.926;30.404;2023-04-03T21:34:20;0.93;;;0.40;;
77736;SDS011;66903;59.926;30.404;2023-04-03T21:39:24;1.58;;;0.40;;
77736;SDS011;66903;59.926;30.404;2023-04-03T21:44:26;0.70;;;0.20;;
77736;SDS011;66903;59.926;30.404;2023-04-03T21:49:29;0.77;;;0.22;;
77736;SDS011;66903;59.926;30.404;2023-04-03T21:54:30;1.23;;;0.30;;
77736;SDS011;66903;59.926;30.404;2023-04-03T21:59:32;1.15;;;0.20;;
77736;SDS011;66903;59.926;30.404;2023-04-03T22:04:33;0.75;;;0.20;;
77736;SDS011;66903;59.926;30.404;2023-04-03T22:15:02;0.63;;;0.20;;
77736;SDS011;66903;59.926;30.404;2023-04-03T22:20:17;0.60;;;0.15;;
77736;SDS011;66903;59.926;30.404;2023-04-03T22:25:24;1.17;;;0.40;;
77736;SDS011;66903;59.926;30.404;2023-04-03T22:31:02;0.20;;;0.10;;
77736;SDS011;66903;59.926;30.404;2023-04-03T22:36:03;0.90;;;0.20;;
77736;SDS011;66903;59.926;30.404;2023-04-03T22:41:05;0.43;;;0.20;;
77736;SDS011;66903;59.926;30.404;2023-04-03T22:46:07;0.03;;;0.03;;
77736;SDS011;66903;59.926;30.404;2023-04-03T22:51:08;0.95;;;0.25;;
77736;SDS011;66903;59.926;30.404;2023-04-03T22:56:09;0.55;;;0.20;;
77736;SDS011;66903;59.926;30.404;2023-04-03T23:01:12;0.28;;;0.20;;
77736;SDS011;66903;59.926;30.404;2023-04-03T23:06:13;0.77;;;0.30;;
77736;SDS011;66903;59.926;30.404;2023-04-03T23:11:14;0.50;;;0.30;;
77736;SDS011;66903;59.926;30.404;2023-04-03T23:16:15;0.70;;;0.30;;
77736;SDS011;66903;59.926;30.404;2023-04-03T23:21:16;0.47;;;0.20;;
77736;SDS011;66903;59.926;30.404;2023-04-03T23:26:16;0.30;;;0.20;;
77736;SDS011;66903;59.926;30.404;2023-04-03T23:31:17;0.17;;;0.10;;
77736;SDS011;66903;59.926;30.404;2023-04-03T23:36:17;0.40;;;0.17;;
77736;SDS011;66903;59.926;30.404;2023-04-03T23:41:19;0.43;;;0.25;;
77736;SDS011;66903;59.926;30.404;2023-04-03T23:46:20;0.55;;;0.20;;
77736;SDS011;66903;59.926;30.404;2023-04-03T23:51:20;1.00;;;0.20;;
77736;SDS011;66903;59.926;30.404;2023-04-03T23:56:21;0.68;;;0.25;;
